CheckWX is a tool to help pilots better visualize weather data.  It is not intended as a substitute for an official pre-flight weather briefing.

05:09:47 UTC

LEAM TAF
Almería International Airport
Almería, Spain
TAF LEAM 240200Z 2403/2503 32005KT CAVOK TX20/2413Z TN08/2406Z BECMG 2407/2409 05012KT PROB40 TEMPO 2410/2421 06015G25KT BECMG 2419/2421 33004KT

Feb-24@
03:00 UTC

Feb-24 @ 03:00 UTC

Feb-24@
07:00 UTC

Feb-24 @ 07:00 UTC

TAF LEAM 240200Z 2403/2503 32005KT CAVOK TX20/2413Z TN08/2406Z
Wind
  • 320° at 5 KTS
Cloud Levels
  • No significant clouds

Feb-24@
07:00 UTC

Feb-24 @ 07:00 UTC

Feb-24@
19:00 UTC

Feb-24 @ 19:00 UTC

BECMG 2407/2409 05012KT

Becoming

Becoming Conditions expected by Sun, Feb 24, 2019 @ 09:00 UTC

Wind
  • 050° at 12 KTS
Cloud Levels
  • No significant clouds

Feb-24@
10:00 UTC

Feb-24 @ 10:00 UTC

Feb-24@
21:00 UTC

Feb-24 @ 21:00 UTC

PROB40 TEMPO 2410/2421 06015G25KT

Temporary - 40% Likelihood

Temporary - 40% Likelihood during this time.

Wind
  • 060° at 15 KTS
  • {Gusting to 25 KTS

Feb-24@
19:00 UTC

Feb-24 @ 19:00 UTC

Feb-25@
03:00 UTC

Feb-25 @ 03:00 UTC

BECMG 2419/2421 33004KT

Becoming

Becoming Conditions expected by Sun, Feb 24, 2019 @ 21:00 UTC

Wind
  • 330° at 4 KTS
Cloud Levels
  • No significant clouds